createdAt,value
2022-08-03T00:04:21.706Z,21.94
2022-08-03T00:09:36.043Z,21.85
2022-08-03T00:14:37.762Z,21.77
2022-08-03T00:19:39.437Z,21.65
2022-08-03T00:24:41.116Z,21.54
2022-08-03T00:30:00.094Z,21.46
2022-08-03T00:40:15.451Z,21.31
2022-08-03T00:45:21.399Z,21.18
2022-08-03T00:50:23.718Z,21.09
2022-08-03T00:55:25.478Z,20.99
2022-08-03T01:00:27.478Z,20.95
2022-08-03T01:05:29.384Z,20.92
2022-08-03T01:10:51.367Z,20.88
2022-08-03T01:16:09.808Z,20.81
2022-08-03T01:21:14.434Z,20.75
2022-08-03T01:26:25.334Z,20.63
2022-08-03T01:31:29.707Z,20.52
2022-08-03T01:36:39.449Z,20.41
2022-08-03T01:41:44.714Z,20.26
2022-08-03T01:46:49.168Z,20.17
2022-08-03T01:51:58.552Z,20.09
2022-08-03T01:57:06.951Z,20.00
2022-08-03T02:02:28.360Z,19.94
2022-08-03T02:07:30.645Z,19.85
2022-08-03T02:12:32.933Z,19.79
2022-08-03T02:17:39.563Z,19.69
2022-08-03T02:22:42.511Z,19.64
2022-08-03T02:27:52.117Z,19.57
2022-08-03T02:32:55.488Z,19.53
2022-08-03T02:37:59.779Z,19.51
2022-08-03T02:43:03.888Z,19.46
2022-08-03T02:48:05.680Z,19.43
2022-08-03T02:53:07.351Z,19.38
2022-08-03T02:58:08.998Z,19.35
2022-08-03T03:03:10.686Z,19.33
2022-08-03T03:08:18.777Z,19.30
2022-08-03T03:13:23.086Z,19.25
2022-08-03T03:18:24.949Z,19.23
2022-08-03T03:23:27.114Z,19.21
2022-08-03T03:28:28.954Z,19.15
2022-08-03T03:33:30.644Z,19.06
2022-08-03T03:38:32.654Z,18.98
2022-08-03T03:43:34.461Z,18.88
2022-08-03T03:48:36.201Z,18.80
2022-08-03T03:53:37.891Z,18.75
2022-08-03T03:58:39.685Z,18.72
2022-08-03T04:03:41.372Z,18.72
2022-08-03T04:09:01.634Z,18.72
2022-08-03T04:14:12.757Z,18.74
2022-08-03T04:19:22.593Z,18.74
2022-08-03T04:24:27.064Z,18.77
2022-08-03T04:29:29.205Z,18.78
2022-08-03T04:34:30.903Z,18.77
2022-08-03T04:39:32.595Z,18.74
2022-08-03T04:44:42.114Z,18.77
2022-08-03T04:49:43.897Z,18.81
2022-08-03T04:54:50.482Z,18.85
2022-08-03T05:00:01.362Z,18.93
2022-08-03T05:05:04.172Z,19.01
2022-08-03T05:10:14.916Z,19.10
2022-08-03T05:15:17.955Z,19.21
2022-08-03T05:20:19.619Z,19.34
2022-08-03T05:25:23.337Z,19.48
2022-08-03T05:30:33.611Z,19.63
2022-08-03T05:36:01.124Z,19.77
2022-08-03T05:41:22.723Z,19.95
2022-08-03T05:46:20.924Z,20.13
2022-08-03T05:51:22.648Z,20.32
2022-08-03T05:56:27.177Z,20.52
2022-08-03T06:01:29.218Z,20.75
2022-08-03T06:06:32.384Z,20.96
2022-08-03T06:11:34.349Z,21.15
2022-08-03T06:16:36.312Z,21.35
2022-08-03T06:21:38.015Z,21.56
2022-08-03T06:26:41.603Z,21.76
2022-08-03T06:31:43.318Z,22.06
2022-08-03T06:36:48.397Z,22.18
2022-08-03T06:41:50.141Z,22.43
2022-08-03T06:46:52.986Z,22.61
2022-08-03T06:52:03.131Z,22.75
2022-08-03T06:57:06.471Z,22.89
2022-08-03T07:02:09.659Z,23.13
2022-08-03T07:07:11.379Z,23.31
2022-08-03T07:12:13.231Z,23.56
2022-08-03T07:17:15.041Z,23.69
2022-08-03T07:22:16.925Z,23.82
2022-08-03T07:27:18.736Z,24.02
2022-08-03T07:32:20.408Z,24.20
2022-08-03T07:37:22.104Z,24.30
2022-08-03T07:42:23.947Z,24.40
2022-08-03T07:47:34.774Z,24.55
2022-08-03T07:52:49.568Z,24.66
2022-08-03T07:58:04.226Z,24.75
2022-08-03T08:03:05.930Z,24.88
2022-08-03T08:08:07.623Z,24.99
2022-08-03T08:13:09.347Z,25.13
2022-08-03T08:18:11.014Z,25.34
2022-08-03T08:23:31.927Z,25.51
2022-08-03T08:28:34.448Z,25.66
2022-08-03T08:38:57.884Z,26.09
2022-08-03T08:44:00.193Z,26.24
2022-08-03T08:49:04.695Z,26.40
2022-08-03T08:54:07.405Z,26.54
2022-08-03T08:59:09.097Z,26.62
2022-08-03T09:04:10.775Z,26.80
2022-08-03T09:10:00.094Z,26.87
2022-08-03T09:14:39.393Z,27.15
2022-08-03T09:20:03.254Z,27.33
2022-08-03T09:25:23.882Z,27.39
2022-08-03T09:30:34.110Z,27.46
2022-08-03T09:35:59.023Z,27.62
2022-08-03T09:41:01.111Z,27.73
2022-08-03T09:46:04.169Z,27.83
2022-08-03T09:51:13.044Z,27.92
2022-08-03T09:56:36.094Z,28.00
2022-08-03T10:01:41.601Z,28.09
2022-08-03T10:06:44.521Z,28.29
2022-08-03T10:11:47.479Z,28.43
2022-08-03T10:16:49.353Z,28.50
2022-08-03T10:21:55.523Z,28.71
2022-08-03T10:27:04.306Z,28.86
2022-08-03T10:32:27.204Z,28.75
2022-08-03T10:37:30.404Z,28.90
2022-08-03T10:42:32.130Z,29.12
2022-08-03T10:47:34.383Z,29.29
2022-08-03T10:52:41.282Z,29.43
2022-08-03T10:57:48.841Z,29.54
2022-08-03T11:03:12.546Z,29.60
2022-08-03T11:08:30.890Z,29.82
2022-08-03T11:13:33.881Z,30.17
2022-08-03T11:18:35.925Z,30.58
2022-08-03T11:24:04.598Z,30.97
2022-08-03T11:29:29.231Z,31.18
2022-08-03T11:34:31.190Z,30.98
2022-08-03T11:39:39.643Z,31.10
2022-08-03T11:44:41.327Z,31.45
2022-08-03T11:49:50.212Z,31.89
2022-08-03T11:54:57.181Z,32.19
2022-08-03T11:59:59.235Z,32.23
2022-08-03T12:05:01.443Z,32.87
2022-08-03T12:10:07.427Z,33.02
2022-08-03T12:15:09.555Z,33.10
2022-08-03T12:20:14.373Z,33.26
2022-08-03T12:25:25.805Z,33.94
2022-08-03T12:30:41.633Z,34.04
2022-08-03T12:35:52.130Z,34.15
2022-08-03T12:41:02.407Z,33.97
2022-08-03T12:46:11.154Z,33.76
2022-08-03T12:51:13.112Z,33.74
2022-08-03T12:56:14.842Z,34.29
2022-08-03T13:01:16.738Z,33.71
2022-08-03T13:06:25.031Z,33.33
2022-08-03T13:11:57.631Z,34.00
2022-08-03T13:16:49.193Z,34.38
2022-08-03T13:22:02.122Z,34.89
2022-08-03T13:28:02.472Z,35.99
2022-08-03T13:32:29.112Z,36.19
2022-08-03T13:37:32.261Z,35.89
2022-08-03T13:42:34.817Z,36.01
2022-08-03T13:47:37.944Z,36.83
2022-08-03T13:52:39.868Z,36.63
2022-08-03T13:58:05.235Z,37.52
2022-08-03T14:03:10.788Z,36.56
2022-08-03T14:08:15.248Z,36.84
2022-08-03T14:13:17.939Z,35.41
2022-08-03T14:18:28.640Z,35.24
2022-08-03T14:23:35.947Z,35.81
2022-08-03T14:28:37.700Z,36.58
2022-08-03T14:33:39.662Z,36.35
2022-08-03T14:38:41.341Z,36.19
2022-08-03T14:44:01.326Z,35.96
2022-08-03T14:50:30.260Z,36.15
2022-08-03T14:54:26.898Z,36.52
2022-08-03T14:59:28.585Z,37.18
2022-08-03T15:04:50.264Z,37.03
2022-08-03T15:09:51.980Z,36.86
2022-08-03T15:14:53.673Z,36.58
2022-08-03T15:20:01.028Z,36.90
2022-08-03T15:26:30.330Z,37.21
2022-08-03T15:30:28.037Z,37.12
2022-08-03T15:35:29.703Z,37.56
2022-08-03T15:40:31.473Z,37.68
2022-08-03T15:45:35.339Z,36.86
2022-08-03T15:50:38.135Z,35.72
2022-08-03T15:55:40.400Z,35.77
2022-08-03T16:00:42.195Z,35.88
2022-08-03T16:05:43.995Z,35.64
2022-08-03T16:10:46.783Z,35.11
2022-08-03T16:15:50.189Z,35.06
2022-08-03T16:20:51.903Z,34.49
2022-08-03T16:25:53.743Z,34.56
2022-08-03T16:30:55.438Z,34.46
2022-08-03T16:35:57.157Z,34.34
2022-08-03T16:40:58.906Z,34.22
2022-08-03T16:46:00.582Z,33.77
2022-08-03T16:51:02.917Z,33.36
2022-08-03T16:56:09.852Z,33.27
2022-08-03T17:01:24.128Z,33.12
2022-08-03T17:06:26.673Z,33.04
2022-08-03T17:11:44.031Z,32.95
2022-08-03T17:16:52.922Z,32.93
2022-08-03T17:22:17.615Z,32.81
2022-08-03T17:28:49.565Z,32.70
2022-08-03T17:32:56.988Z,32.64
2022-08-03T17:38:03.341Z,32.52
2022-08-03T17:44:14.248Z,32.43
2022-08-03T17:48:31.845Z,32.26
2022-08-03T17:53:39.193Z,32.15
2022-08-03T17:58:43.729Z,32.00
2022-08-03T18:03:59.092Z,31.89
2022-08-03T18:09:05.231Z,31.89
2022-08-03T18:14:26.478Z,31.81
2022-08-03T18:20:03.605Z,31.73
2022-08-03T18:24:50.891Z,31.62
2022-08-03T18:29:53.445Z,31.53
2022-08-03T18:34:58.647Z,31.40
2022-08-03T18:40:00.766Z,31.25
2022-08-03T18:45:15.056Z,31.07
2022-08-03T18:50:37.122Z,30.86
2022-08-03T18:56:11.002Z,30.64
2022-08-03T19:01:59.035Z,30.41
2022-08-03T19:06:56.603Z,30.17
2022-08-03T19:12:12.764Z,29.95
2022-08-03T19:17:21.781Z,29.70
2022-08-03T19:22:27.119Z,29.46
2022-08-03T19:27:29.888Z,29.19
2022-08-03T19:32:32.494Z,28.96
2022-08-03T19:37:39.810Z,28.74
2022-08-03T19:42:44.668Z,28.51
2022-08-03T19:47:51.387Z,28.29
2022-08-03T19:52:53.214Z,28.07
2022-08-03T19:57:54.913Z,27.94
2022-08-03T20:02:59.041Z,27.77
2022-08-03T20:08:02.652Z,27.60
2022-08-03T20:13:04.329Z,27.41
2022-08-03T20:18:06.095Z,26.96
2022-08-03T20:23:18.992Z,26.62
2022-08-03T20:28:26.696Z,26.38
2022-08-03T20:34:20.041Z,26.23
2022-08-03T20:39:22.078Z,26.19
2022-08-03T20:44:25.692Z,26.09
2022-08-03T20:49:27.728Z,26.03
2022-08-03T20:54:30.942Z,25.87
2022-08-03T20:59:46.867Z,25.76
2022-08-03T21:04:49.540Z,25.67
2022-08-03T21:09:52.837Z,25.57
2022-08-03T21:15:02.758Z,25.43
2022-08-03T21:20:08.783Z,25.09
2022-08-03T21:25:10.665Z,24.87
2022-08-03T21:30:12.638Z,24.80
2022-08-03T21:35:14.496Z,24.72
2022-08-03T21:40:16.527Z,24.75
2022-08-03T21:45:18.387Z,24.77
2022-08-03T21:50:20.148Z,24.77
2022-08-03T21:55:21.923Z,24.77
2022-08-03T22:00:23.802Z,24.71
2022-08-03T22:05:29.025Z,24.61
2022-08-03T22:10:44.678Z,24.43
2022-08-03T22:15:47.670Z,24.31
2022-08-03T22:20:51.120Z,24.21
2022-08-03T22:25:53.106Z,24.05
2022-08-03T22:30:54.813Z,24.00
2022-08-03T22:35:57.272Z,23.96
2022-08-03T22:40:58.968Z,23.87
2022-08-03T22:46:09.554Z,23.76
2022-08-03T22:51:15.096Z,23.71
2022-08-03T22:56:16.800Z,23.64
2022-08-03T23:01:20.143Z,23.54
2022-08-03T23:06:21.822Z,23.49
2022-08-03T23:11:23.533Z,23.46
2022-08-03T23:16:28.601Z,23.38
2022-08-03T23:21:53.091Z,23.23
2022-08-03T23:26:53.125Z,23.14
2022-08-03T23:31:55.025Z,23.00
2022-08-03T23:36:56.716Z,22.89
2022-08-03T23:41:58.430Z,22.87
2022-08-03T23:47:02.118Z,22.84
2022-08-03T23:52:34.252Z,22.70
2022-08-03T23:57:51.303Z,22.52
